Time;durP1;ratioP1;P1;durP2;ratioP2;P2;SDS_P1;SDS_P2;PMS_P1;PMS_P2;Temp;Humidity;BMP_temperature;BMP_pressure;BME280_temperature;BME280_humidity;BME280_pressure;Samples;Min_cycle;Max_cycle;Signal;HPM_P1;HPM_P2
2022/05/04 00:02:07;;;;;;;;;;;13.90;99.90;;;;;;5002401;28;20032;-77
2022/05/04 00:04:34;;;;;;;;;;;13.90;99.90;;;;;;4999661;28;20020;-77
2022/05/04 00:07:01;;;;;;;;;;;13.90;99.90;;;;;;5002354;28;19925;-77
2022/05/04 00:09:28;;;;;;;;;;;13.80;99.90;;;;;;4999250;28;19929;-77
2022/05/04 00:11:56;;;;;;;;;;;13.80;99.90;;;;;;4999528;28;20000;-77
2022/05/04 00:14:25;;;;;;;;;;;13.80;99.90;;;;;;4997871;28;19934;-78
2022/05/04 00:16:52;;;;;;;;;;;13.80;99.90;;;;;;4982723;28;19925;-78
2022/05/04 00:19:20;;;;;;;;;;;13.80;99.90;;;;;;5000822;28;20273;-78
2022/05/04 00:21:47;;;;;;;;;;;13.80;99.90;;;;;;4987780;28;19968;-77
2022/05/04 00:24:14;;;;;;;;;;;13.80;99.90;;;;;;5005444;28;19933;-77
2022/05/04 00:26:42;;;;;;;;;;;13.70;99.90;;;;;;4999943;28;19930;-78
2022/05/04 00:29:09;;;;;;;;;;;13.70;99.90;;;;;;5003727;28;19926;-78
2022/05/04 00:31:38;;;;;;;;;;;13.70;99.90;;;;;;4986011;28;20297;-77
2022/05/04 00:34:05;;;;;;;;;;;13.70;99.90;;;;;;5000798;28;19968;-78
2022/05/04 00:36:32;;;;;;;;;;;13.70;99.90;;;;;;4983152;28;19996;-78
2022/05/04 00:39:00;;;;;;;;;;;13.70;99.90;;;;;;5003003;28;19933;-78
2022/05/04 00:41:27;;;;;;;;;;;13.70;99.90;;;;;;4999917;28;21375;-77
2022/05/04 00:43:54;;;;;;;;;;;13.70;99.90;;;;;;4997545;28;19934;-78
2022/05/04 00:46:22;;;;;;;;;;;13.60;99.90;;;;;;5000949;28;19933;-75
2022/05/04 00:48:51;;;;;;;;;;;13.60;99.90;;;;;;5004236;28;19932;-76
2022/05/04 00:51:18;;;;;;;;;;;13.60;99.90;;;;;;4999799;28;20396;-77
2022/05/04 00:53:46;;;;;;;;;;;13.60;99.90;;;;;;4986184;28;19981;-76
2022/05/04 00:56:14;;;;;;;;;;;13.60;99.90;;;;;;5000825;28;19948;-76
2022/05/04 00:58:55;;;;;;;;;;;13.60;99.90;;;;;;5004024;28;19931;-76
2022/05/04 01:01:23;;;;;;;;;;;13.60;99.90;;;;;;4982845;28;20351;-77
2022/05/04 01:03:52;;;;;;;;;;;13.50;99.90;;;;;;4986025;28;19933;-76
2022/05/04 01:06:20;;;;;;;;;;;13.50;99.90;;;;;;4986603;28;19957;-77
2022/05/04 01:08:48;;;;;;;;;;;13.50;99.90;;;;;;5001175;28;19980;-77
2022/05/04 01:11:15;;;;;;;;;;;13.50;99.90;;;;;;4981458;28;19929;-78
2022/05/04 01:13:43;;;;;;;;;;;13.50;99.90;;;;;;4988635;28;19926;-78
2022/05/04 01:16:10;;;;;;;;;;;13.50;99.90;;;;;;5002740;28;19925;-76
2022/05/04 01:18:38;;;;;;;;;;;13.50;99.90;;;;;;5001189;28;19933;-76
2022/05/04 01:21:07;;;;;;;;;;;13.40;99.90;;;;;;5005685;28;19926;-76
2022/05/04 01:23:36;;;;;;;;;;;13.40;99.90;;;;;;5000064;28;20403;-76
2022/05/04 01:26:05;;;;;;;;;;;13.40;99.90;;;;;;4998370;28;19933;-76
2022/05/04 01:28:32;;;;;;;;;;;13.40;99.90;;;;;;5003137;28;19925;-75
2022/05/04 01:31:01;;;;;;;;;;;13.40;99.90;;;;;;5004039;28;20394;-76
2022/05/04 01:33:28;;;;;;;;;;;13.40;99.90;;;;;;5004544;28;19930;-76
2022/05/04 01:35:56;;;;;;;;;;;13.40;99.90;;;;;;5006299;28;19926;-77
2022/05/04 01:38:23;;;;;;;;;;;13.40;99.90;;;;;;4992726;28;19991;-76
2022/05/04 01:40:52;;;;;;;;;;;13.40;99.90;;;;;;5010489;28;19926;-76
2022/05/04 01:43:19;;;;;;;;;;;13.30;99.90;;;;;;5004257;28;20463;-76
2022/05/04 01:45:46;;;;;;;;;;;13.30;99.90;;;;;;4986447;28;19926;-76
2022/05/04 01:48:13;;;;;;;;;;;13.30;99.90;;;;;;5004128;28;19932;-75
2022/05/04 01:50:40;;;;;;;;;;;13.30;99.90;;;;;;5004469;28;19980;-77
2022/05/04 01:53:08;;;;;;;;;;;13.30;99.90;;;;;;4985919;28;19933;-76
2022/05/04 01:55:36;;;;;;;;;;;13.30;99.90;;;;;;5003695;28;20392;-76
2022/05/04 01:58:04;;;;;;;;;;;13.30;99.90;;;;;;5007487;28;21285;-76
2022/05/04 02:00:31;;;;;;;;;;;13.20;99.90;;;;;;5000502;28;20326;-76
2022/05/04 02:02:59;;;;;;;;;;;13.20;99.90;;;;;;5002960;28;19933;-76
2022/05/04 02:05:26;;;;;;;;;;;13.20;99.90;;;;;;5003857;28;20020;-76
2022/05/04 02:07:55;;;;;;;;;;;13.20;99.90;;;;;;5000375;28;20036;-76
2022/05/04 02:10:22;;;;;;;;;;;13.20;99.90;;;;;;5000262;28;19929;-76
2022/05/04 02:12:49;;;;;;;;;;;13.20;99.90;;;;;;4993257;28;19934;-76
2022/05/04 02:15:18;;;;;;;;;;;13.20;99.90;;;;;;5011798;28;19934;-76
2022/05/04 02:17:45;;;;;;;;;;;13.20;99.90;;;;;;4987839;28;19926;-75
2022/05/04 02:20:13;;;;;;;;;;;13.10;99.90;;;;;;5002582;28;19933;-77
2022/05/04 02:22:40;;;;;;;;;;;13.10;99.90;;;;;;4985596;28;20384;-75
2022/05/04 02:25:08;;;;;;;;;;;13.10;99.90;;;;;;5006743;28;20656;-77
2022/05/04 02:27:35;;;;;;;;;;;13.10;99.90;;;;;;4985724;28;20395;-76
2022/05/04 02:30:02;;;;;;;;;;;13.10;99.90;;;;;;5004993;28;19926;-76
2022/05/04 02:32:31;;;;;;;;;;;13.10;99.90;;;;;;4989615;28;19976;-76
2022/05/04 02:37:59;;;;;;;;;;;13.10;99.90;;;;;;4982979;28;19928;-77
2022/05/04 02:40:27;;;;;;;;;;;13.10;99.90;;;;;;4994488;28;19968;-77
2022/05/04 02:42:55;;;;;;;;;;;13.00;99.90;;;;;;5004926;28;19926;-76
2022/05/04 02:45:22;;;;;;;;;;;13.00;99.90;;;;;;5002879;28;20404;-76
2022/05/04 02:47:51;;;;;;;;;;;13.00;99.90;;;;;;4992058;28;19925;-76
2022/05/04 02:50:18;;;;;;;;;;;13.00;99.90;;;;;;4988860;28;19933;-75
2022/05/04 02:52:45;;;;;;;;;;;13.00;99.90;;;;;;4986904;28;20016;-76
2022/05/04 02:55:13;;;;;;;;;;;13.00;99.90;;;;;;5003136;28;19929;-76
2022/05/04 02:57:40;;;;;;;;;;;13.00;99.90;;;;;;4987917;28;19925;-76
2022/05/04 03:00:08;;;;;;;;;;;12.90;99.90;;;;;;4987073;28;19932;-76
2022/05/04 03:02:34;;;;;;;;;;;13.00;99.90;;;;;;5002140;28;20012;-76
2022/05/04 03:05:04;;;;;;;;;;;12.90;99.90;;;;;;4987738;28;19928;-77
2022/05/04 03:07:31;;;;;;;;;;;12.90;99.90;;;;;;5002626;28;19937;-76
2022/05/04 03:09:58;;;;;;;;;;;12.90;99.90;;;;;;5004711;28;20021;-76
2022/05/04 03:12:26;;;;;;;;;;;12.90;99.90;;;;;;4972124;28;20304;-76
2022/05/04 03:14:54;;;;;;;;;;;12.90;99.90;;;;;;4988328;28;19933;-76
2022/05/04 03:17:22;;;;;;;;;;;12.90;99.90;;;;;;5005140;28;19925;-76
2022/05/04 03:19:50;;;;;;;;;;;12.90;99.90;;;;;;5002778;28;19926;-76
2022/05/04 03:22:18;;;;;;;;;;;12.80;99.90;;;;;;4989309;28;19930;-76
2022/05/04 03:24:46;;;;;;;;;;;12.80;99.90;;;;;;4990090;28;19932;-75
2022/05/04 03:27:13;;;;;;;;;;;12.80;99.90;;;;;;4988671;28;19933;-75
2022/05/04 03:29:40;;;;;;;;;;;12.80;99.90;;;;;;5005446;28;19929;-76
2022/05/04 03:32:08;;;;;;;;;;;12.80;99.90;;;;;;5008753;28;20003;-77
2022/05/04 03:34:35;;;;;;;;;;;12.80;99.90;;;;;;5002923;28;19933;-75
2022/05/04 03:37:02;;;;;;;;;;;12.80;99.90;;;;;;4996598;28;19933;-77
2022/05/04 03:39:31;;;;;;;;;;;12.80;99.90;;;;;;4999378;28;20396;-77
2022/05/04 03:41:59;;;;;;;;;;;12.80;99.90;;;;;;5006219;28;19929;-76
2022/05/04 03:44:26;;;;;;;;;;;12.70;99.90;;;;;;4993412;28;19926;-76
2022/05/04 03:46:54;;;;;;;;;;;12.70;99.90;;;;;;5000915;28;20387;-77
2022/05/04 03:49:22;;;;;;;;;;;12.70;99.90;;;;;;4997823;28;19929;-78
2022/05/04 03:51:49;;;;;;;;;;;12.70;99.90;;;;;;4983565;28;20020;-77
2022/05/04 03:54:17;;;;;;;;;;;12.70;99.90;;;;;;4999780;28;19929;-77
2022/05/04 03:56:45;;;;;;;;;;;12.70;99.90;;;;;;4996334;28;20036;-76
2022/05/04 03:59:13;;;;;;;;;;;12.70;99.90;;;;;;4991459;28;20380;-76
2022/05/04 04:01:40;;;;;;;;;;;12.70;99.90;;;;;;4997787;28;19926;-75
2022/05/04 04:04:07;;;;;;;;;;;12.60;99.90;;;;;;5001939;28;20376;-76
2022/05/04 04:06:34;;;;;;;;;;;12.70;99.90;;;;;;5003211;28;20295;-76
2022/05/04 04:09:02;;;;;;;;;;;12.60;99.90;;;;;;5003103;28;19925;-75
2022/05/04 04:11:29;;;;;;;;;;;12.60;99.90;;;;;;4999081;28;19985;-76
2022/05/04 04:13:57;;;;;;;;;;;12.60;99.90;;;;;;5004580;28;19948;-76
2022/05/04 04:16:25;;;;;;;;;;;12.60;99.90;;;;;;4996862;28;19934;-77
2022/05/04 04:18:52;;;;;;;;;;;12.60;99.90;;;;;;4986535;28;19936;-76
2022/05/04 04:24:04;;;;;;;;;;;12.60;99.90;;;;;;4991886;28;20311;-76
2022/05/04 04:26:32;;;;;;;;;;;12.50;99.90;;;;;;4999943;28;19941;-75
2022/05/04 04:29:00;;;;;;;;;;;12.60;99.90;;;;;;4997251;28;19937;-76
2022/05/04 04:31:28;;;;;;;;;;;12.50;99.90;;;;;;4994260;28;19932;-76
2022/05/04 04:36:32;;;;;;;;;;;12.50;99.90;;;;;;4985503;28;19932;-77
2022/05/04 04:39:00;;;;;;;;;;;12.40;99.90;;;;;;4988780;28;19974;-78
2022/05/04 04:41:27;;;;;;;;;;;12.50;99.90;;;;;;4972640;28;19926;-78
2022/05/04 04:43:54;;;;;;;;;;;12.50;99.90;;;;;;4967922;28;19926;-79
2022/05/04 04:46:23;;;;;;;;;;;12.50;99.90;;;;;;4974155;28;19926;-77
2022/05/04 04:48:51;;;;;;;;;;;12.40;99.90;;;;;;4967624;28;20154;-77
2022/05/04 04:51:18;;;;;;;;;;;12.40;99.90;;;;;;4987969;23;20327;-83
2022/05/04 04:53:45;;;;;;;;;;;12.40;99.90;;;;;;4969260;28;22039;-87
2022/05/04 04:56:12;;;;;;;;;;;12.40;99.90;;;;;;4979437;28;20016;-88
2022/05/04 04:58:39;;;;;;;;;;;12.40;99.90;;;;;;4976664;28;19938;-87
2022/05/04 05:01:06;;;;;;;;;;;12.40;99.90;;;;;;4964114;28;19934;-83
2022/05/04 05:03:35;;;;;;;;;;;12.40;99.90;;;;;;4960430;28;19930;-89
2022/05/04 05:06:02;;;;;;;;;;;12.40;99.90;;;;;;4976801;28;20369;-85
2022/05/04 05:08:29;;;;;;;;;;;12.40;99.90;;;;;;4981590;28;19969;-83
2022/05/04 05:10:57;;;;;;;;;;;12.30;99.90;;;;;;4969184;28;19934;-86
2022/05/04 05:13:24;;;;;;;;;;;12.30;99.90;;;;;;4951790;28;19962;-84
2022/05/04 05:16:08;;;;;;;;;;;12.30;99.90;;;;;;4984378;28;19930;-83
2022/05/04 05:18:37;;;;;;;;;;;12.30;99.90;;;;;;4977273;28;19947;-80
2022/05/04 05:21:04;;;;;;;;;;;12.30;99.90;;;;;;4959719;28;20052;-80
2022/05/04 05:23:31;;;;;;;;;;;12.30;99.90;;;;;;4960883;28;20021;-80
2022/05/04 05:25:58;;;;;;;;;;;12.30;99.90;;;;;;4982545;28;20367;-80
2022/05/04 05:28:25;;;;;;;;;;;12.30;99.90;;;;;;4980638;28;19926;-80
2022/05/04 05:30:52;;;;;;;;;;;12.30;99.90;;;;;;4968994;28;20490;-79
2022/05/04 05:33:20;;;;;;;;;;;12.30;99.90;;;;;;4970413;28;20013;-79
2022/05/04 05:35:48;;;;;;;;;;;12.30;99.90;;;;;;4961857;28;19933;-80
2022/05/04 05:38:16;;;;;;;;;;;12.30;99.90;;;;;;4979234;28;19965;-80
2022/05/04 05:40:43;;;;;;;;;;;12.20;99.90;;;;;;4982158;28;19926;-80
2022/05/04 05:43:10;;;;;;;;;;;12.20;99.90;;;;;;4970293;28;19972;-79
2022/05/04 05:45:38;;;;;;;;;;;12.20;99.90;;;;;;4975096;28;19930;-80
2022/05/04 05:48:05;;;;;;;;;;;12.20;99.90;;;;;;4982538;28;19954;-81
2022/05/04 05:50:34;;;;;;;;;;;12.20;99.90;;;;;;4980402;28;19926;-80
2022/05/04 05:53:03;;;;;;;;;;;12.20;99.90;;;;;;4973860;28;19925;-78
2022/05/04 05:55:30;;;;;;;;;;;12.20;99.90;;;;;;4973888;28;19926;-79
2022/05/04 05:57:58;;;;;;;;;;;12.20;99.90;;;;;;4983220;28;19978;-81
2022/05/04 06:00:26;;;;;;;;;;;12.20;99.90;;;;;;4972298;28;20006;-78
2022/05/04 06:02:53;;;;;;;;;;;12.20;99.90;;;;;;4964017;28;19934;-79
2022/05/04 06:05:21;;;;;;;;;;;12.20;99.90;;;;;;4944391;28;20032;-79
2022/05/04 06:07:48;;;;;;;;;;;12.20;99.90;;;;;;4970635;28;20033;-79
2022/05/04 06:10:17;;;;;;;;;;;12.20;99.90;;;;;;4957399;28;19930;-79
2022/05/04 06:12:45;;;;;;;;;;;12.20;99.90;;;;;;4968541;28;19933;-79
2022/05/04 06:15:14;;;;;;;;;;;12.20;99.90;;;;;;4967778;28;19933;-78
2022/05/04 06:17:42;;;;;;;;;;;12.10;99.90;;;;;;4965468;28;19956;-80
2022/05/04 06:20:09;;;;;;;;;;;12.20;99.90;;;;;;4972788;28;20601;-81
2022/05/04 06:22:37;;;;;;;;;;;12.20;99.90;;;;;;4967831;28;19937;-78
2022/05/04 06:25:04;;;;;;;;;;;12.10;99.90;;;;;;4973099;28;20428;-81
2022/05/04 06:27:33;;;;;;;;;;;12.20;99.90;;;;;;4977199;28;20001;-79
2022/05/04 06:35:30;;;;;;;;;;;12.00;99.90;;;;;;4984283;28;19965;-79
2022/05/04 06:37:58;;;;;;;;;;;12.10;99.90;;;;;;4982249;28;19926;-79
2022/05/04 06:40:25;;;;;;;;;;;12.00;99.90;;;;;;4977092;28;19948;-79
2022/05/04 06:42:54;;;;;;;;;;;12.10;99.90;;;;;;4975831;28;20358;-80
2022/05/04 06:45:21;;;;;;;;;;;12.10;99.90;;;;;;4983927;28;20341;-79
2022/05/04 06:47:49;;;;;;;;;;;12.10;99.90;;;;;;4978160;28;19980;-80
2022/05/04 06:50:17;;;;;;;;;;;12.10;99.90;;;;;;4969184;28;19981;-80
2022/05/04 06:52:44;;;;;;;;;;;12.10;99.90;;;;;;4978738;28;20357;-79
2022/05/04 06:55:12;;;;;;;;;;;12.10;99.90;;;;;;4967945;28;19935;-80
2022/05/04 06:57:39;;;;;;;;;;;12.10;99.90;;;;;;4964698;28;19934;-79
2022/05/04 07:00:08;;;;;;;;;;;12.20;99.90;;;;;;4975649;28;19932;-79
2022/05/04 07:02:35;;;;;;;;;;;12.20;99.90;;;;;;4983755;28;19926;-79
2022/05/04 07:05:03;;;;;;;;;;;12.20;99.90;;;;;;4972800;28;19926;-79
2022/05/04 07:07:30;;;;;;;;;;;12.20;99.90;;;;;;4979391;28;19934;-79
2022/05/04 07:09:58;;;;;;;;;;;12.20;99.90;;;;;;4971249;28;19978;-79
2022/05/04 07:12:26;;;;;;;;;;;12.30;99.90;;;;;;4979360;28;20366;-79
2022/05/04 07:14:56;;;;;;;;;;;12.30;99.90;;;;;;4972053;28;19968;-81
2022/05/04 07:17:24;;;;;;;;;;;12.30;99.90;;;;;;4974705;28;19950;-81
2022/05/04 07:19:51;;;;;;;;;;;12.30;99.90;;;;;;4976986;28;20455;-81
2022/05/04 07:22:18;;;;;;;;;;;12.40;99.90;;;;;;4980273;28;20296;-79
2022/05/04 07:24:45;;;;;;;;;;;12.30;99.90;;;;;;4966630;28;19926;-79
2022/05/04 07:27:12;;;;;;;;;;;12.40;99.90;;;;;;4982250;28;19926;-81
2022/05/04 07:29:39;;;;;;;;;;;12.40;99.90;;;;;;4983430;28;20816;-81
2022/05/04 07:32:06;;;;;;;;;;;12.40;99.90;;;;;;4983875;28;19933;-81
2022/05/04 07:34:36;;;;;;;;;;;12.40;99.90;;;;;;4971998;28;19934;-81
2022/05/04 07:37:04;;;;;;;;;;;12.40;99.90;;;;;;4981836;28;19934;-81
2022/05/04 07:42:25;;;;;;;;;;;12.40;99.90;;;;;;4953978;28;19933;-79
2022/05/04 07:44:57;;;;;;;;;;;12.40;99.90;;;;;;4966832;28;19934;-79
2022/05/04 07:47:25;;;;;;;;;;;12.50;99.90;;;;;;4956107;28;19981;-78
2022/05/04 07:49:53;;;;;;;;;;;12.50;99.90;;;;;;4967267;28;20002;-79
2022/05/04 07:52:20;;;;;;;;;;;12.50;99.90;;;;;;4972757;28;20351;-79
2022/05/04 07:54:47;;;;;;;;;;;12.50;99.90;;;;;;4952335;28;19934;-79
2022/05/04 07:57:14;;;;;;;;;;;12.50;99.90;;;;;;4952667;28;19932;-79
2022/05/04 07:59:41;;;;;;;;;;;12.50;99.90;;;;;;4968099;28;19988;-79
2022/05/04 08:04:55;;;;;;;;;;;12.50;99.90;;;;;;4969931;28;19932;-79
2022/05/04 08:07:22;;;;;;;;;;;12.50;99.90;;;;;;4949558;28;19984;-79
2022/05/04 08:09:49;;;;;;;;;;;12.60;99.90;;;;;;4968466;28;20300;-79
2022/05/04 08:12:16;;;;;;;;;;;12.60;99.90;;;;;;4966599;28;20389;-79
2022/05/04 08:14:43;;;;;;;;;;;12.60;99.90;;;;;;4968011;28;19934;-80
2022/05/04 08:17:10;;;;;;;;;;;12.60;99.90;;;;;;4952359;28;20604;-79
2022/05/04 08:19:39;;;;;;;;;;;12.60;99.90;;;;;;4966665;28;19986;-79
2022/05/04 08:22:12;;;;;;;;;;;12.60;99.90;;;;;;4952337;28;19926;-78
2022/05/04 08:24:39;;;;;;;;;;;12.70;99.90;;;;;;4970444;28;19993;-79
2022/05/04 08:27:07;;;;;;;;;;;12.70;99.90;;;;;;4949614;28;20362;-79
2022/05/04 08:29:34;;;;;;;;;;;12.70;99.90;;;;;;4953737;28;20060;-80
2022/05/04 08:32:02;;;;;;;;;;;12.70;99.90;;;;;;4954484;28;19930;-79
2022/05/04 08:34:29;;;;;;;;;;;12.70;99.90;;;;;;4970680;28;19926;-79
2022/05/04 08:36:56;;;;;;;;;;;12.70;99.90;;;;;;4967963;28;19933;-79
2022/05/04 08:39:25;;;;;;;;;;;12.70;99.90;;;;;;4977460;28;19965;-79
2022/05/04 08:41:52;;;;;;;;;;;12.70;99.90;;;;;;4970442;28;19942;-79
2022/05/04 08:44:19;;;;;;;;;;;12.70;99.90;;;;;;4969699;28;20428;-79
2022/05/04 08:46:46;;;;;;;;;;;12.80;99.90;;;;;;4970334;28;19930;-79
2022/05/04 08:49:14;;;;;;;;;;;12.80;99.90;;;;;;4970494;28;20417;-79
2022/05/04 08:51:41;;;;;;;;;;;12.80;99.90;;;;;;4970730;28;19942;-79
2022/05/04 08:54:09;;;;;;;;;;;12.80;99.90;;;;;;4954471;28;20021;-79
2022/05/04 08:56:38;;;;;;;;;;;12.80;99.90;;;;;;4974231;28;19934;-79
2022/05/04 08:59:05;;;;;;;;;;;12.80;99.90;;;;;;4966919;28;19969;-79
2022/05/04 09:01:33;;;;;;;;;;;12.80;99.90;;;;;;4971396;28;20017;-79
2022/05/04 09:04:00;;;;;;;;;;;12.90;99.90;;;;;;4968223;28;19926;-79
2022/05/04 09:06:28;;;;;;;;;;;12.90;99.90;;;;;;4969426;28;20575;-79
2022/05/04 09:08:56;;;;;;;;;;;12.90;99.90;;;;;;4972040;28;19968;-78
2022/05/04 09:11:24;;;;;;;;;;;12.90;99.90;;;;;;4952288;28;19930;-79
2022/05/04 09:13:53;;;;;;;;;;;12.90;99.90;;;;;;4967392;28;19934;-79
2022/05/04 09:16:31;;;;;;;;;;;12.90;99.90;;;;;;4956391;28;20347;-79
2022/05/04 09:19:00;;;;;;;;;;;12.90;99.90;;;;;;4968788;28;20047;-79
2022/05/04 09:21:27;;;;;;;;;;;13.00;99.90;;;;;;4969320;28;20392;-79
2022/05/04 09:23:55;;;;;;;;;;;13.00;99.90;;;;;;4952468;28;19926;-79
2022/05/04 09:26:23;;;;;;;;;;;13.00;99.90;;;;;;4972716;28;19930;-79
2022/05/04 09:28:51;;;;;;;;;;;13.00;99.90;;;;;;4973855;28;20459;-79
2022/05/04 09:31:24;;;;;;;;;;;13.00;99.90;;;;;;4968020;28;19930;-79
2022/05/04 09:33:54;;;;;;;;;;;13.00;99.90;;;;;;4972102;28;19926;-79
2022/05/04 09:36:32;;;;;;;;;;;13.10;99.90;;;;;;4972855;28;20008;-79
2022/05/04 09:47:24;;;;;;;;;;;13.10;99.90;;;;;;4933579;28;19923;-79
2022/05/04 09:49:53;;;;;;;;;;;13.10;99.90;;;;;;4959652;28;19941;-79
2022/05/04 09:52:22;;;;;;;;;;;13.20;99.90;;;;;;4975633;28;19926;-79
2022/05/04 09:54:52;;;;;;;;;;;13.20;99.90;;;;;;4980719;28;19927;-79
2022/05/04 09:57:20;;;;;;;;;;;13.20;99.90;;;;;;4975595;28;19926;-79
2022/05/04 09:59:48;;;;;;;;;;;13.20;99.90;;;;;;4976729;28;19958;-79
2022/05/04 10:02:15;;;;;;;;;;;13.20;99.90;;;;;;4961637;28;19934;-80
2022/05/04 10:04:44;;;;;;;;;;;13.20;99.90;;;;;;4961405;28;19930;-79
2022/05/04 10:07:12;;;;;;;;;;;13.30;99.90;;;;;;4973622;28;19930;-79
2022/05/04 10:09:39;;;;;;;;;;;13.30;99.90;;;;;;4963373;28;20306;-79
2022/05/04 10:12:06;;;;;;;;;;;13.30;99.90;;;;;;4949446;28;19926;-80
2022/05/04 10:14:33;;;;;;;;;;;13.30;99.90;;;;;;4974511;28;19926;-79
2022/05/04 10:17:04;;;;;;;;;;;13.30;99.90;;;;;;4979667;28;19932;-79
2022/05/04 10:19:35;;;;;;;;;;;13.40;99.90;;;;;;4971255;28;19972;-79
2022/05/04 10:22:07;;;;;;;;;;;13.30;99.90;;;;;;4967649;28;19934;-79
2022/05/04 10:24:35;;;;;;;;;;;13.40;99.90;;;;;;4969968;28;19926;-80
2022/05/04 10:27:04;;;;;;;;;;;13.60;99.90;;;;;;4973894;28;19983;-79
2022/05/04 10:32:29;;;;;;;;;;;13.70;99.90;;;;;;4973804;28;19922;-83
2022/05/04 10:35:15;;;;;;;;;;;13.70;99.90;;;;;;4974441;28;19957;-81
2022/05/04 10:38:04;;;;;;;;;;;13.70;99.90;;;;;;4970436;28;19986;-81
2022/05/04 10:40:32;;;;;;;;;;;13.70;99.90;;;;;;4970945;28;20373;-80
2022/05/04 10:43:01;;;;;;;;;;;13.80;99.90;;;;;;4956738;28;19978;-79
2022/05/04 10:45:32;;;;;;;;;;;13.70;99.90;;;;;;4955549;28;19937;-79
2022/05/04 10:48:14;;;;;;;;;;;13.80;99.90;;;;;;4971045;28;19984;-79
2022/05/04 10:50:48;;;;;;;;;;;13.80;99.90;;;;;;4975085;28;20356;-79
2022/05/04 10:53:36;;;;;;;;;;;13.80;99.90;;;;;;4971573;28;19930;-80
2022/05/04 10:56:05;;;;;;;;;;;13.80;99.90;;;;;;4969897;28;19973;-82
2022/05/04 10:58:34;;;;;;;;;;;13.80;99.90;;;;;;4974116;28;19980;-79
2022/05/04 11:01:02;;;;;;;;;;;13.90;99.90;;;;;;4963424;28;20364;-81
2022/05/04 11:03:32;;;;;;;;;;;13.90;99.90;;;;;;4969703;28;20013;-81
2022/05/04 11:06:03;;;;;;;;;;;13.90;99.90;;;;;;4975996;28;20408;-80
2022/05/04 11:08:35;;;;;;;;;;;13.90;99.90;;;;;;4977669;28;19936;-80
2022/05/04 11:11:03;;;;;;;;;;;14.00;99.90;;;;;;4968908;28;19926;-78
2022/05/04 11:13:31;;;;;;;;;;;13.90;99.90;;;;;;4974672;28;19930;-80
2022/05/04 11:16:00;;;;;;;;;;;13.90;99.90;;;;;;4956695;28;19973;-82
2022/05/04 11:18:29;;;;;;;;;;;14.00;99.90;;;;;;4969938;28;19981;-83
2022/05/04 11:20:57;;;;;;;;;;;14.00;99.90;;;;;;4956093;28;19941;-84
2022/05/04 11:23:25;;;;;;;;;;;14.10;99.90;;;;;;4941653;28;19933;-83
2022/05/04 11:25:54;;;;;;;;;;;14.10;99.90;;;;;;4969447;28;19934;-80
2022/05/04 11:28:24;;;;;;;;;;;14.10;99.90;;;;;;4973789;28;19949;-81
2022/05/04 11:30:51;;;;;;;;;;;14.20;99.90;;;;;;4977130;28;19950;-82
2022/05/04 11:33:19;;;;;;;;;;;14.20;99.90;;;;;;4971436;28;19941;-81
2022/05/04 11:35:51;;;;;;;;;;;14.10;99.90;;;;;;4970293;28;19930;-82
2022/05/04 11:38:19;;;;;;;;;;;14.20;99.90;;;;;;4962233;28;20277;-80
2022/05/04 11:40:46;;;;;;;;;;;14.20;99.90;;;;;;4966225;28;20352;-82
2022/05/04 11:43:28;;;;;;;;;;;14.20;99.90;;;;;;4949447;28;19933;-82
2022/05/04 11:45:56;;;;;;;;;;;14.20;99.90;;;;;;4970157;28;20025;-81
2022/05/04 11:48:23;;;;;;;;;;;14.20;99.90;;;;;;4961958;28;19962;-81
2022/05/04 11:50:52;;;;;;;;;;;14.20;99.90;;;;;;4964131;28;19932;-82
2022/05/04 11:53:19;;;;;;;;;;;14.20;99.90;;;;;;4961670;28;20416;-81
2022/05/04 11:55:47;;;;;;;;;;;14.10;99.90;;;;;;4954876;28;19930;-86
2022/05/04 11:58:17;;;;;;;;;;;14.20;99.90;;;;;;4952023;28;19934;-83
2022/05/04 12:00:46;;;;;;;;;;;14.20;99.90;;;;;;4956673;28;19941;-81
2022/05/04 12:03:13;;;;;;;;;;;14.10;99.90;;;;;;4964510;28;20005;-82
2022/05/04 12:05:41;;;;;;;;;;;14.20;99.90;;;;;;4965264;28;19926;-79
2022/05/04 12:08:10;;;;;;;;;;;14.20;99.90;;;;;;4966925;28;19982;-81
2022/05/04 12:10:38;;;;;;;;;;;14.20;99.90;;;;;;4953559;28;19933;-81
2022/05/04 12:13:05;;;;;;;;;;;14.20;99.90;;;;;;4950597;28;20397;-81
2022/05/04 12:15:34;;;;;;;;;;;14.20;99.90;;;;;;4949019;28;19926;-81
2022/05/04 12:18:04;;;;;;;;;;;14.20;99.90;;;;;;4939122;28;20637;-82
2022/05/04 12:20:33;;;;;;;;;;;14.20;99.90;;;;;;4966712;28;20529;-80
2022/05/04 12:23:01;;;;;;;;;;;14.20;99.90;;;;;;4951753;28;19926;-81
2022/05/04 12:25:29;;;;;;;;;;;14.30;99.90;;;;;;4965447;28;19976;-81
2022/05/04 12:27:56;;;;;;;;;;;14.30;99.90;;;;;;4972222;28;19933;-82
2022/05/04 12:33:11;;;;;;;;;;;14.30;99.90;;;;;;4961389;28;19922;-80
2022/05/04 12:35:40;;;;;;;;;;;14.40;99.90;;;;;;4963994;28;19965;-80
2022/05/04 12:38:07;;;;;;;;;;;14.40;99.90;;;;;;4969448;28;19937;-80
2022/05/04 12:40:34;;;;;;;;;;;14.40;99.90;;;;;;4974094;28;19934;-80
2022/05/04 12:43:02;;;;;;;;;;;14.50;99.90;;;;;;4972159;28;19934;-79
2022/05/04 12:45:29;;;;;;;;;;;14.50;99.90;;;;;;4973091;28;20037;-80
2022/05/04 12:47:56;;;;;;;;;;;14.60;99.90;;;;;;4967433;28;20308;-80
2022/05/04 12:50:26;;;;;;;;;;;14.60;99.90;;;;;;4954684;28;19989;-82
2022/05/04 12:52:53;;;;;;;;;;;14.60;99.90;;;;;;4969629;28;19927;-83
2022/05/04 12:55:20;;;;;;;;;;;14.60;99.90;;;;;;4968833;28;19934;-82
2022/05/04 12:57:47;;;;;;;;;;;14.60;99.90;;;;;;4949960;28;19964;-81
2022/05/04 13:00:15;;;;;;;;;;;14.70;99.90;;;;;;4965029;28;19933;-81
2022/05/04 13:02:43;;;;;;;;;;;14.70;99.90;;;;;;4971962;28;19933;-82
2022/05/04 13:05:11;;;;;;;;;;;14.80;99.90;;;;;;4970841;28;19941;-81
2022/05/04 13:07:43;;;;;;;;;;;14.80;99.90;;;;;;4969430;28;19929;-82
2022/05/04 13:10:11;;;;;;;;;;;14.80;99.90;;;;;;4977054;28;20381;-82
2022/05/04 13:12:40;;;;;;;;;;;14.90;99.90;;;;;;4974431;28;19985;-81
2022/05/04 13:15:07;;;;;;;;;;;14.90;99.90;;;;;;4952120;28;19949;-82
2022/05/04 13:17:36;;;;;;;;;;;14.90;99.90;;;;;;4959643;28;19958;-81
2022/05/04 13:20:04;;;;;;;;;;;14.90;99.90;;;;;;4961268;28;20021;-81
2022/05/04 13:22:33;;;;;;;;;;;15.00;99.90;;;;;;4968133;28;19945;-81
2022/05/04 13:25:02;;;;;;;;;;;15.00;99.90;;;;;;4950072;28;19927;-80
2022/05/04 13:27:29;;;;;;;;;;;15.00;99.90;;;;;;4964241;28;19930;-80
2022/05/04 13:29:57;;;;;;;;;;;15.00;99.90;;;;;;4967867;28;22116;-81
2022/05/04 13:32:24;;;;;;;;;;;15.10;99.90;;;;;;4966361;28;19934;-80
2022/05/04 13:34:51;;;;;;;;;;;15.10;99.90;;;;;;4973541;28;19922;-80
2022/05/04 13:37:18;;;;;;;;;;;15.10;99.90;;;;;;4958034;28;19926;-80
2022/05/04 13:39:45;;;;;;;;;;;15.10;99.90;;;;;;4968789;28;20024;-79
2022/05/04 13:42:15;;;;;;;;;;;15.10;99.90;;;;;;4969522;28;20420;-81
2022/05/04 13:44:42;;;;;;;;;;;15.20;99.90;;;;;;4977494;28;19937;-80
2022/05/04 13:47:10;;;;;;;;;;;15.10;99.90;;;;;;4976921;28;19945;-79
2022/05/04 13:49:36;;;;;;;;;;;15.20;99.90;;;;;;4968946;28;19961;-81
2022/05/04 13:54:49;;;;;;;;;;;15.30;99.90;;;;;;4969308;28;19922;-79
2022/05/04 13:57:18;;;;;;;;;;;15.30;99.90;;;;;;4957567;28;19925;-80
2022/05/04 13:59:45;;;;;;;;;;;15.30;99.90;;;;;;4970188;28;19929;-80
2022/05/04 14:02:12;;;;;;;;;;;15.30;99.90;;;;;;4974732;28;19997;-80
2022/05/04 14:04:40;;;;;;;;;;;15.30;99.90;;;;;;4973004;28;20012;-79
2022/05/04 14:07:07;;;;;;;;;;;15.40;99.90;;;;;;4960737;28;19946;-80
2022/05/04 14:09:34;;;;;;;;;;;15.40;99.90;;;;;;4965801;28;19986;-79
2022/05/04 14:12:01;;;;;;;;;;;15.40;99.90;;;;;;4945627;28;20392;-79
2022/05/04 14:17:15;;;;;;;;;;;15.40;99.90;;;;;;4974538;28;19958;-80
2022/05/04 14:19:42;;;;;;;;;;;15.50;99.90;;;;;;4978919;28;19948;-80
2022/05/04 14:22:09;;;;;;;;;;;15.50;99.90;;;;;;4960643;28;19926;-79
2022/05/04 14:24:36;;;;;;;;;;;15.50;99.90;;;;;;4974711;28;20114;-79
2022/05/04 14:27:04;;;;;;;;;;;15.50;99.90;;;;;;4958464;28;20324;-79
2022/05/04 14:29:32;;;;;;;;;;;15.60;99.90;;;;;;4975189;28;19930;-79
2022/05/04 14:31:59;;;;;;;;;;;15.60;99.90;;;;;;4952012;28;19934;-79
2022/05/04 14:34:27;;;;;;;;;;;15.60;99.90;;;;;;4947344;28;19926;-80
2022/05/04 14:36:54;;;;;;;;;;;15.60;99.90;;;;;;4958067;28;19950;-80
2022/05/04 14:39:21;;;;;;;;;;;15.60;99.90;;;;;;4957069;28;19946;-79
2022/05/04 14:41:48;;;;;;;;;;;15.70;99.90;;;;;;4955632;28;19930;-79
2022/05/04 14:44:15;;;;;;;;;;;15.70;99.90;;;;;;4961229;28;19934;-80
2022/05/04 14:46:43;;;;;;;;;;;15.70;99.90;;;;;;4961893;28;19930;-79
2022/05/04 14:49:10;;;;;;;;;;;15.70;99.90;;;;;;4960231;28;19934;-79
2022/05/04 14:51:39;;;;;;;;;;;15.70;99.90;;;;;;4959651;28;19926;-79
2022/05/04 14:54:05;;;;;;;;;;;15.70;99.90;;;;;;4961172;28;19934;-80
2022/05/04 14:56:32;;;;;;;;;;;15.80;99.90;;;;;;4942531;28;19930;-79
2022/05/04 14:58:59;;;;;;;;;;;15.80;99.90;;;;;;4956834;28;19929;-80
2022/05/04 15:01:27;;;;;;;;;;;15.90;99.90;;;;;;4957945;28;19933;-80